Time;durP1;ratioP1;P1;durP2;ratioP2;P2;SDS_P1;SDS_P2;PMS_P1;PMS_P2;Temp;Humidity;BMP_temperature;BMP_pressure;BME280_temperature;BME280_humidity;BME280_pressure;Samples;Min_cycle;Max_cycle;Signal;HPM_P1;HPM_P2
2022/06/02 00:01:12;;;;;;;9.40;6.07;;;;;;;8.71;86.04;101807.66;6497562;23;20009;-78
2022/06/02 00:03:53;;;;;;;8.07;6.18;;;;;;;8.79;86.45;101807.75;6497699;23;20004;-78
2022/06/02 00:06:40;;;;;;;7.70;5.80;;;;;;;8.71;86.72;101802.47;6500004;23;20011;-81
2022/06/02 00:09:52;;;;;;;10.70;7.15;;;;;;;8.58;87.23;101808.34;6505086;23;20555;-80
2022/06/02 00:12:34;;;;;;;9.15;6.47;;;;;;;8.52;87.60;101811.78;6503984;23;20067;-79
2022/06/02 00:15:11;;;;;;;7.95;6.13;;;;;;;8.54;87.67;101814.38;6501565;23;20004;-79
2022/06/02 00:17:46;;;;;;;10.20;6.72;;;;;;;8.37;87.69;101815.03;6503660;23;20023;-82
2022/06/02 00:20:41;;;;;;;8.65;6.18;;;;;;;8.43;88.11;101813.34;6502211;23;20008;-76
2022/06/02 00:23:21;;;;;;;7.35;6.53;;;;;;;8.30;88.50;101810.59;6499305;23;20540;-80
2022/06/02 00:26:25;;;;;;;10.55;7.07;;;;;;;8.19;89.07;101813.06;6498458;23;20012;-82
2022/06/02 00:29:35;;;;;;;9.43;7.50;;;;;;;8.19;88.98;101806.97;6492032;23;20495;-80
2022/06/02 00:32:14;;;;;;;9.70;7.63;;;;;;;8.08;88.97;101804.22;6497152;23;20008;-79
2022/06/02 00:34:55;;;;;;;8.45;7.32;;;;;;;8.04;89.89;101812.84;6498500;23;20434;-81
2022/06/02 00:37:41;;;;;;;10.75;8.50;;;;;;;7.91;89.61;101822.16;6498662;23;20054;-81
2022/06/02 00:40:13;;;;;;;11.13;7.57;;;;;;;7.87;89.58;101822.09;6498096;23;20008;-81
2022/06/02 00:42:57;;;;;;;8.60;7.80;;;;;;;7.84;90.03;101817.72;6498342;23;20005;-78
2022/06/02 00:45:28;;;;;;;;;;;;;;;7.92;88.35;101813.53;6498814;23;20003;-81
2022/06/02 00:48:11;;;;;;;9.65;7.85;;;;;;;7.90;89.71;101816.94;6497873;23;20218;-79
2022/06/02 00:50:45;;;;;;;7.97;7.18;;;;;;;7.84;89.77;101822.91;6497472;23;20484;-80
2022/06/02 00:53:19;;;;;;;10.35;8.50;;;;;;;7.76;89.87;101829.72;6498006;23;20016;-82
2022/06/02 00:59:00;;;;;;;11.68;8.23;;;;;;;7.75;90.39;101831.44;6498745;23;20016;-79
2022/06/02 01:01:34;;;;;;;11.85;9.23;;;;;;;7.65;90.17;101835.63;6497771;23;20027;-81
2022/06/02 01:04:10;;;;;;;9.68;7.82;;;;;;;7.54;90.61;101831.97;6498031;23;20015;-82
2022/06/02 01:06:49;;;;;;;9.57;8.10;;;;;;;7.55;90.63;101831.13;6497459;23;20000;-82
2022/06/02 01:09:48;;;;;;;9.80;8.90;;;;;;;7.54;91.06;101821.59;6498824;23;20008;-79
2022/06/02 01:12:22;;;;;;;10.82;8.05;;;;;;;7.55;91.12;101820.75;6498558;23;20004;-82
2022/06/02 01:15:24;;;;;;;8.48;7.57;;;;;;;7.45;91.50;101822.34;6498581;23;20012;-83
2022/06/02 01:17:58;;;;;;;9.80;8.60;;;;;;;7.37;91.21;101820.44;6497558;23;20018;-80
2022/06/02 01:20:32;;;;;;;9.80;8.80;;;;;;;7.33;91.84;101822.09;6498278;23;20594;-80
2022/06/02 01:23:10;;;;;;;10.23;8.75;;;;;;;7.53;92.10;101818.97;6498440;23;20329;-81
2022/06/02 01:26:18;;;;;;;8.88;7.97;;;;;;;7.48;92.42;101821.50;6498261;23;20004;-82
2022/06/02 01:29:18;;;;;;;11.43;8.32;;;;;;;7.44;91.73;101817.97;6497396;23;20039;-79
2022/06/02 01:32:09;;;;;;;10.23;8.70;;;;;;;7.33;91.41;101824.72;6498229;23;20000;-82
2022/06/02 01:35:08;;;;;;;9.35;7.85;;;;;;;7.32;91.70;101825.53;6498774;23;20051;-79
2022/06/02 01:38:02;;;;;;;9.05;8.07;;;;;;;7.24;91.76;101827.13;6497929;23;20087;-78
2022/06/02 01:40:52;;;;;;;9.32;8.35;;;;;;;7.15;92.19;101826.97;6469621;23;20422;-78
2022/06/02 01:44:05;;;;;;;9.00;8.10;;;;;;;7.22;91.92;101832.28;6497898;23;20607;-82
2022/06/02 01:47:01;;;;;;;9.38;7.97;;;;;;;7.14;91.36;101826.09;6432036;23;20016;-84
2022/06/02 01:49:51;;;;;;;10.05;8.60;;;;;;;7.18;91.70;101827.00;6431306;23;20019;-79
2022/06/02 01:52:50;;;;;;;10.48;8.95;;;;;;;7.02;92.38;101829.34;6437114;23;20022;-83
2022/06/02 01:55:56;;;;;;;10.00;8.93;;;;;;;7.02;92.53;101818.97;6464003;23;20319;-83
2022/06/02 01:58:53;;;;;;;9.75;8.75;;;;;;;7.01;92.76;101821.53;6400610;23;20024;-82
2022/06/02 02:01:58;;;;;;;10.45;9.45;;;;;;;7.04;93.08;101825.06;6400604;23;20313;-82
2022/06/02 02:04:30;;;;;;;13.48;9.45;;;;;;;7.15;93.02;101827.84;6400720;23;20072;-81
2022/06/02 02:07:11;;;;;;;12.77;9.90;;;;;;;7.20;93.49;101835.72;6400070;23;20009;-82
2022/06/02 02:10:10;;;;;;;11.48;10.27;;;;;;;7.07;93.56;101834.63;6401169;23;20068;-81
2022/06/02 02:13:00;;;;;;;11.30;10.20;;;;;;;6.89;93.02;101835.13;6400696;23;20013;-80
2022/06/02 02:15:48;;;;;;;15.95;10.15;;;;;;;6.93;94.06;101834.34;6401068;23;20013;-79
2022/06/02 02:18:40;;;;;;;12.98;10.38;;;;;;;6.85;94.36;101839.38;6374548;23;20014;-80
2022/06/02 02:21:31;;;;;;;13.00;11.52;;;;;;;6.91;94.46;101829.13;6369957;23;20024;-82
2022/06/02 02:24:17;;;;;;;12.70;11.50;;;;;;;6.90;94.15;101829.97;6369652;23;20087;-81
2022/06/02 02:27:04;;;;;;;12.90;11.70;;;;;;;6.83;94.53;101833.31;6369730;23;20380;-82
2022/06/02 02:29:53;;;;;;;11.52;10.45;;;;;;;6.73;94.54;101839.16;6370100;23;20085;-82
2022/06/02 02:32:40;;;;;;;13.35;12.05;;;;;;;6.79;94.79;101831.47;6370142;23;20013;-82
2022/06/02 02:35:28;;;;;;;11.93;10.77;;;;;;;6.74;94.43;101840.88;6431952;23;20418;-82
2022/06/02 02:38:12;;;;;;;14.05;12.55;;;;;;;6.77;94.82;101840.94;6465388;23;20008;-82
2022/06/02 02:40:54;;;;;;;15.48;13.88;;;;;;;6.78;95.13;101836.63;6465049;23;20012;-80
2022/06/02 02:43:33;;;;;;;16.10;13.57;;;;;;;6.80;95.24;101846.19;6465353;23;20004;-82
2022/06/02 02:46:16;;;;;;;16.20;14.60;;;;;;;6.81;95.48;101840.19;6466020;23;20119;-80
2022/06/02 02:49:25;;;;;;;15.05;13.52;;;;;;;6.66;95.18;101838.13;6466657;23;20043;-80
2022/06/02 02:52:19;;;;;;;16.13;13.23;;;;;;;6.63;95.34;101838.06;6466285;23;20529;-81
2022/06/02 02:54:59;;;;;;;14.90;12.77;;;;;;;6.55;95.32;101847.41;6465494;23;20013;-79
2022/06/02 02:57:49;;;;;;;15.48;13.98;;;;;;;6.50;95.55;101849.88;6465698;23;20012;-79
2022/06/02 03:00:44;;;;;;;15.07;13.68;;;;;;;6.42;95.39;101848.84;6465844;23;20031;-83
2022/06/02 03:03:40;;;;;;;15.55;14.05;;;;;;;6.35;95.39;101849.59;6466122;23;20009;-80
2022/06/02 03:06:17;;;;;;;15.70;14.07;;;;;;;6.36;95.59;101857.38;6465875;23;20494;-81
2022/06/02 03:09:13;;;;;;;15.52;14.00;;;;;;;6.31;95.90;101860.69;6466113;23;19996;-80
2022/06/02 03:11:57;;;;;;;17.00;15.30;;;;;;;6.31;96.00;101855.53;6466154;23;20004;-77
2022/06/02 03:15:01;;;;;;;19.00;15.30;;;;;;;6.28;95.97;101866.72;6465833;23;20038;-79
2022/06/02 03:17:34;;;;;;;;;;;;;;;6.23;94.85;101863.16;6339277;23;20040;-83
2022/06/02 03:20:09;;;;;;;21.25;16.45;;;;;;;6.20;95.55;101869.13;6339673;23;19991;-80
2022/06/02 03:22:58;;;;;;;16.40;14.80;;;;;;;6.22;96.36;101866.56;6340296;23;20014;-81
2022/06/02 03:25:48;;;;;;;18.42;16.60;;;;;;;6.17;96.35;101871.63;6339464;23;20010;-81
2022/06/02 03:28:28;;;;;;;17.73;15.95;;;;;;;6.15;96.55;101872.44;6339271;23;20086;-83
2022/06/02 03:31:23;;;;;;;21.27;17.08;;;;;;;6.12;96.66;101875.84;6338902;23;20284;-82
2022/06/02 03:34:20;;;;;;;18.92;17.13;;;;;;;6.24;97.10;101887.31;6340752;23;20438;-82
2022/06/02 03:37:06;;;;;;;19.05;17.02;;;;;;;6.28;97.04;101887.41;6339561;23;20444;-83
2022/06/02 03:39:53;;;;;;;19.88;17.98;;;;;;;6.25;97.22;101894.22;6340241;23;20138;-83
2022/06/02 03:42:24;;;;;;;20.60;17.85;;;;;;;6.31;97.31;101890.09;6342984;23;20011;-82
2022/06/02 03:45:07;;;;;;;21.07;18.97;;;;;;;6.33;97.58;101897.88;6347249;23;20010;-83
2022/06/02 03:47:54;;;;;;;21.52;19.05;;;;;;;6.32;97.68;101896.13;6346310;23;20006;-80
2022/06/02 03:50:44;;;;;;;19.85;17.73;;;;;;;6.34;97.33;101897.03;6346251;23;20014;-81
2022/06/02 03:53:30;;;;;;;21.35;18.17;;;;;;;6.30;97.23;101898.69;6364194;23;20117;-82
2022/06/02 03:56:27;;;;;;;20.98;18.90;;;;;;;6.13;97.28;101903.44;6506961;23;20054;-81
2022/06/02 03:59:32;;;;;;;20.13;17.85;;;;;;;6.19;97.17;101905.31;6505019;23;20032;-82
2022/06/02 04:02:11;;;;;;;19.98;17.95;;;;;;;6.07;96.85;101898.16;6408537;23;20092;-82
2022/06/02 04:05:01;;;;;;;21.58;19.45;;;;;;;6.10;97.00;101906.00;6412323;23;20009;-80
2022/06/02 04:07:53;;;;;;;21.30;19.08;;;;;;;6.08;97.22;101899.03;6408655;23;20376;-82
2022/06/02 04:10:35;;;;;;;21.67;19.45;;;;;;;6.08;97.35;101904.19;6407954;23;20013;-79
2022/06/02 04:13:40;;;;;;;22.42;20.13;;;;;;;6.03;97.73;101907.53;6406329;23;20010;-78
2022/06/02 04:16:23;;;;;;;21.15;18.95;;;;;;;6.19;97.77;101906.19;6405270;23;20009;-82
2022/06/02 04:22:48;;;;;;;22.80;20.45;;;;;;;6.28;98.03;101922.78;6403308;23;20021;-82
2022/06/02 04:25:38;;;;;;;24.25;21.77;;;;;;;6.35;98.26;101916.91;6281489;23;20418;-79
2022/06/02 04:28:15;;;;;;;23.67;21.30;;;;;;;6.31;98.29;101921.16;6282410;23;20015;-82
2022/06/02 04:31:13;;;;;;;24.17;21.73;;;;;;;6.35;98.21;101924.69;6281246;23;20094;-83
2022/06/02 04:34:20;;;;;;;25.52;22.48;;;;;;;6.38;98.40;101929.94;6281848;23;20452;-83
2022/06/02 04:37:16;;;;;;;26.50;23.70;;;;;;;6.50;98.54;101927.59;6222677;24;20364;-83
2022/06/02 04:40:03;;;;;;;28.35;25.65;;;;;;;6.57;98.89;101931.22;6273221;23;20011;-82
2022/06/02 04:42:55;;;;;;;30.00;26.90;;;;;;;6.69;99.15;101931.47;6281382;23;20398;-81
2022/06/02 04:45:55;;;;;;;29.25;26.27;;;;;;;6.74;99.34;101932.44;6281090;23;20015;-82
2022/06/02 04:48:45;;;;;;;31.30;27.08;;;;;;;6.87;99.52;101924.94;6281500;23;20019;-83
2022/06/02 04:51:35;;;;;;;29.58;26.58;;;;;;;6.79;99.36;101929.09;6281608;23;20015;-82
2022/06/02 04:54:22;;;;;;;31.88;28.48;;;;;;;6.87;99.52;101933.59;6283051;23;20034;-82
2022/06/02 04:57:02;;;;;;;30.35;26.98;;;;;;;6.94;99.58;101930.28;6282117;23;20083;-82
2022/06/02 04:59:57;;;;;;;31.58;28.27;;;;;;;6.96;99.78;101935.50;6282726;23;20015;-82
2022/06/02 05:02:44;;;;;;;30.02;27.02;;;;;;;6.98;99.74;101930.34;6335747;23;20014;-82
2022/06/02 05:05:23;;;;;;;30.98;27.75;;;;;;;7.05;99.57;101929.63;6342098;23;20121;-83
2022/06/02 05:08:11;;;;;;;32.75;28.52;;;;;;;7.08;99.59;101932.28;6341291;23;20077;-82
2022/06/02 05:11:05;;;;;;;34.75;30.73;;;;;;;7.17;99.63;101929.00;6341075;23;20015;-81
2022/06/02 05:13:52;;;;;;;31.77;28.40;;;;;;;7.30;99.19;101944.81;6415945;23;20311;-82
2022/06/02 05:16:42;;;;;;;33.33;30.02;;;;;;;7.42;99.60;101941.59;6499869;23;20464;-82
2022/06/02 05:19:35;;;;;;;35.35;31.67;;;;;;;7.55;100.00;101947.91;6506031;23;20035;-79
2022/06/02 05:22:14;;;;;;;37.33;33.10;;;;;;;7.66;100.00;101941.19;6500132;23;20793;-82
2022/06/02 05:24:57;;;;;;;36.78;32.75;;;;;;;7.79;100.00;101942.28;6499088;23;20031;-82
2022/06/02 05:28:01;;;;;;;37.63;33.60;;;;;;;7.83;99.46;101943.19;6499927;23;20012;-83
2022/06/02 05:30:36;;;;;;;;;;;;;;;7.91;98.81;101943.34;6401676;23;20018;-81
2022/06/02 05:33:17;;;;;;;35.72;32.13;;;;;;;8.07;98.93;101941.88;6401354;23;19991;-84
2022/06/02 05:36:01;;;;;;;34.85;31.40;;;;;;;8.18;99.03;101940.31;6401765;23;20144;-83
2022/06/02 05:38:48;;;;;;;36.20;31.63;;;;;;;8.35;99.07;101933.63;6402769;23;20512;-83
2022/06/02 05:41:28;;;;;;;35.72;32.13;;;;;;;8.45;99.16;101937.25;6402192;23;20006;-82
2022/06/02 05:44:11;;;;;;;36.05;32.20;;;;;;;8.57;99.25;101944.38;6401668;23;20088;-80
2022/06/02 05:46:54;;;;;;;35.20;31.42;;;;;;;8.67;99.00;101943.63;6402043;23;20009;-83
2022/06/02 05:49:43;;;;;;;33.33;29.42;;;;;;;8.73;98.14;101946.31;6402600;23;20010;-83
2022/06/02 05:52:30;;;;;;;34.35;30.70;;;;;;;8.87;98.01;101949.13;6380716;23;20052;-82
2022/06/02 05:55:29;;;;;;;33.55;29.45;;;;;;;8.98;98.19;101946.63;6404793;23;20049;-80
2022/06/02 05:58:03;;;;;;;33.15;29.73;;;;;;;9.08;98.22;101956.31;6409132;23;20005;-84
2022/06/02 06:00:47;;;;;;;34.53;31.00;;;;;;;9.15;98.50;101964.19;6409039;23;20014;-82
2022/06/02 06:03:32;;;;;;;30.85;27.65;;;;;;;9.27;98.11;101962.63;6406033;23;20013;-82
2022/06/02 06:06:31;;;;;;;30.90;27.58;;;;;;;9.41;97.91;101967.09;6412906;23;20411;-80
2022/06/02 06:09:21;;;;;;;29.27;26.17;;;;;;;9.51;97.63;101968.06;6504534;23;20019;-83
2022/06/02 06:12:09;;;;;;;28.17;25.50;;;;;;;9.59;96.92;101969.00;6499782;23;20477;-83
2022/06/02 06:15:03;;;;;;;29.05;25.27;;;;;;;9.66;96.26;101978.66;6498299;23;20016;-83
2022/06/02 06:17:53;;;;;;;27.38;24.63;;;;;;;9.78;95.92;101986.56;6497940;23;20047;-83
2022/06/02 06:20:40;;;;;;;29.38;25.48;;;;;;;9.92;95.57;101989.31;6499060;23;20058;-81
2022/06/02 06:23:20;;;;;;;33.40;26.40;;;;;;;10.10;95.03;101996.41;6473133;23;20462;-83
2022/06/02 06:26:04;;;;;;;26.73;24.02;;;;;;;10.16;94.29;101996.47;6498146;23;20019;-81
2022/06/02 06:28:46;;;;;;;25.70;21.55;;;;;;;10.25;93.51;101992.19;6496983;23;20095;-83
2022/06/02 06:31:37;;;;;;;25.33;22.65;;;;;;;10.34;92.85;101997.50;6496210;23;20146;-82
2022/06/02 06:34:34;;;;;;;23.42;21.05;;;;;;;10.48;92.95;101993.28;6497343;23;20004;-80
2022/06/02 06:37:42;;;;;;;20.48;18.42;;;;;;;10.66;91.58;101992.53;6496836;23;20007;-83
2022/06/02 06:40:38;;;;;;;21.00;18.58;;;;;;;10.75;92.05;101994.28;6469142;23;20015;-81
2022/06/02 06:43:40;;;;;;;20.65;18.52;;;;;;;10.90;91.47;101997.00;6496446;23;20000;-82
2022/06/02 06:46:25;;;;;;;21.70;19.38;;;;;;;11.03;90.75;102000.53;6497022;23;20004;-82
2022/06/02 06:49:10;;;;;;;19.10;17.30;;;;;;;11.13;90.16;102004.06;6496983;23;20012;-81
2022/06/02 06:52:13;;;;;;;19.38;17.45;;;;;;;11.25;90.09;102005.84;6495880;23;20075;-82
2022/06/02 06:55:00;;;;;;;18.13;16.42;;;;;;;11.36;89.51;102011.13;6495974;23;20012;-78
2022/06/02 06:57:43;;;;;;;13.68;12.25;;;;;;;11.48;87.40;102014.66;6496609;23;20035;-83
2022/06/02 07:00:21;;;;;;;;;;;;;;;11.66;88.33;102019.03;6496922;23;20035;-81
2022/06/02 07:03:17;;;;;;;17.00;13.80;;;;;;;11.80;85.32;102020.81;6496508;23;19915;-81
2022/06/02 07:05:52;;;;;;;16.50;12.93;;;;;;;11.99;84.52;102017.41;6496658;23;20014;-82
2022/06/02 07:08:32;;;;;;;15.05;13.50;;;;;;;12.24;83.48;102019.16;6496606;23;20103;-81
2022/06/02 07:14:27;;;;;;;11.13;10.02;;;;;;;12.25;81.62;102033.97;6496921;23;20016;-80
2022/06/02 07:17:06;;;;;;;14.65;11.52;;;;;;;12.18;82.27;102028.72;6497661;23;20004;-80
2022/06/02 07:19:51;;;;;;;12.52;11.27;;;;;;;12.21;82.68;102031.34;6497505;23;20008;-76
2022/06/02 07:22:39;;;;;;;11.55;10.45;;;;;;;12.29;80.80;102033.97;6496621;23;20008;-81
2022/06/02 07:25:18;;;;;;;10.35;9.40;;;;;;;12.39;76.21;102034.84;6498774;23;20004;-79
2022/06/02 07:28:02;;;;;;;11.13;9.05;;;;;;;12.62;76.09;102036.56;6499971;23;20035;-82
2022/06/02 07:30:44;;;;;;;12.40;9.55;;;;;;;12.79;76.11;102041.78;6497557;23;20074;-83
2022/06/02 07:33:34;;;;;;;10.82;9.55;;;;;;;12.77;74.00;102044.41;6498918;23;20470;-82
2022/06/02 07:36:12;;;;;;;10.93;9.65;;;;;;;12.65;74.52;102042.66;6498802;23;20004;-83
2022/06/02 07:38:43;;;;;;;12.48;9.85;;;;;;;12.72;76.89;102052.25;6498954;23;20012;-80
2022/06/02 07:41:48;;;;;;;18.27;11.67;;;;;;;12.82;76.37;102050.50;6498647;23;20008;-82
2022/06/02 07:44:31;;;;;;;11.60;10.48;;;;;;;12.94;77.46;102053.09;6499070;23;20004;-76
2022/06/02 07:47:37;;;;;;;12.73;10.38;;;;;;;13.06;76.85;102051.31;6499373;23;20012;-82
2022/06/02 07:50:30;;;;;;;13.35;11.05;;;;;;;12.98;74.61;102047.84;6499095;23;20022;-81
2022/06/02 07:53:24;;;;;;;13.13;11.82;;;;;;;13.50;77.24;102042.44;6498296;23;20012;-83
2022/06/02 07:56:08;;;;;;;14.55;11.23;;;;;;;13.76;74.01;102047.53;6498848;23;20004;-82
2022/06/02 07:58:55;;;;;;;12.02;10.93;;;;;;;14.17;73.27;102045.53;6500515;23;20004;-82
2022/06/02 08:01:57;;;;;;;14.75;11.70;;;;;;;14.64;71.74;102049.53;6498063;23;20014;-82
2022/06/02 08:04:42;;;;;;;11.53;10.07;;;;;;;14.62;68.82;102039.91;6501472;23;20019;-83
2022/06/02 08:07:52;;;;;;;11.65;10.52;;;;;;;14.66;69.66;102039.88;6500144;23;20008;-82
2022/06/02 08:10:57;;;;;;;10.68;9.25;;;;;;;14.59;69.61;102043.44;6497508;23;20012;-83
2022/06/02 08:13:34;;;;;;;10.43;9.48;;;;;;;14.47;67.88;102041.75;6498415;23;20066;-83
2022/06/02 08:16:11;;;;;;;11.20;9.57;;;;;;;14.56;67.98;102043.44;6498636;23;20004;-82
2022/06/02 08:18:48;;;;;;;9.88;8.55;;;;;;;14.45;68.19;102042.69;6497029;23;20024;-79
2022/06/02 08:21:25;;;;;;;10.70;9.60;;;;;;;14.36;69.31;102036.63;6498104;23;20046;-82
2022/06/02 08:23:59;;;;;;;12.50;9.40;;;;;;;14.38;70.57;102036.63;6498510;23;20473;-83
2022/06/02 08:26:33;;;;;;;11.25;10.07;;;;;;;14.27;69.60;102036.69;6498905;23;20422;-82
2022/06/02 08:29:26;;;;;;;10.15;9.15;;;;;;;14.36;68.42;102046.22;6499546;23;20019;-83
2022/06/02 08:32:32;;;;;;;12.43;8.95;;;;;;;14.55;68.22;102045.22;6499434;23;20486;-83
2022/06/02 08:35:24;;;;;;;10.20;8.85;;;;;;;14.57;66.75;102039.91;6472904;23;20376;-84
2022/06/02 08:38:10;;;;;;;9.77;8.73;;;;;;;14.81;65.18;102049.38;6498975;23;20326;-84
2022/06/02 08:44:18;;;;;;;6.18;5.10;;;;;;;15.45;60.61;102055.59;6514844;23;20023;-83
2022/06/02 08:46:55;;;;;;;8.02;5.30;;;;;;;15.24;61.38;102061.16;6512445;23;20070;-81
2022/06/02 08:49:51;;;;;;;7.20;5.05;;;;;;;15.31;62.56;102052.28;6502522;23;20039;-84
2022/06/02 08:53:03;;;;;;;6.50;5.90;;;;;;;15.50;61.74;102047.66;6448197;23;1222254;-82
2022/06/02 08:55:49;;;;;;;7.93;6.05;;;;;;;15.72;60.08;102058.78;6502232;23;20020;-82
2022/06/02 08:58:46;;;;;;;6.65;5.70;;;;;;;16.19;62.16;102051.94;6501380;23;20441;-84
2022/06/02 09:01:51;;;;;;;6.75;5.43;;;;;;;16.56;60.44;102061.88;6502373;23;20008;-84
2022/06/02 09:04:38;;;;;;;6.78;4.80;;;;;;;16.30;58.08;102054.41;6501558;23;20007;-83
2022/06/02 09:07:36;;;;;;;6.38;4.32;;;;;;;15.83;57.46;102061.28;6500432;23;20100;-81
2022/06/02 09:10:17;;;;;;;5.18;4.68;;;;;;;15.51;57.70;102049.41;6500642;23;20453;-84
2022/06/02 09:13:06;;;;;;;7.55;5.00;;;;;;;15.53;57.97;102052.03;6500493;23;20004;-84
2022/06/02 09:15:50;;;;;;;6.63;5.13;;;;;;;16.12;59.81;102046.84;6501555;23;20499;-83
2022/06/02 09:19:00;;;;;;;6.47;5.20;;;;;;;16.19;56.39;102054.59;6500753;23;20008;-82
2022/06/02 09:22:09;;;;;;;6.38;5.22;;;;;;;16.32;59.02;102057.03;6372448;23;20101;-84
2022/06/02 09:25:02;;;;;;;6.03;5.43;;;;;;;16.67;58.51;102056.41;6379013;23;20068;-82
2022/06/02 09:27:33;;;;;;;;;;;;;;;17.06;58.33;102047.84;6373303;23;20478;-84
2022/06/02 09:30:17;;;;;;;5.83;5.33;;;;;;;17.05;57.23;102049.59;6371446;23;19917;-84
2022/06/02 09:36:08;;;;;;;6.05;5.45;;;;;;;17.25;56.01;102043.94;6372703;23;20464;-84
2022/06/02 09:39:17;;;;;;;5.82;4.90;;;;;;;17.28;54.35;102046.50;6373321;23;20013;-84
2022/06/02 09:42:10;;;;;;;5.63;4.65;;;;;;;17.42;56.34;102040.94;6371624;23;20016;-86
2022/06/02 09:44:50;;;;;;;9.25;6.10;;;;;;;17.64;52.80;102040.47;6371406;23;20006;-83
2022/06/02 09:47:43;;;;;;;6.30;5.15;;;;;;;17.47;53.58;102043.50;6372443;23;20018;-82
2022/06/02 09:50:32;;;;;;;;;;;;;;;17.89;51.99;102040.81;6373083;23;20029;-80
2022/06/02 09:53:21;;;;;;;7.30;4.97;;;;;;;17.16;50.62;102035.34;6372335;23;19917;-85
2022/06/02 09:56:04;;;;;;;5.88;5.25;;;;;;;16.97;49.75;102043.63;6373174;23;20005;-83
2022/06/02 09:58:51;;;;;;;8.32;6.85;;;;;;;16.64;51.56;102040.69;6440716;23;20012;-83
2022/06/02 10:01:57;;;;;;;5.75;5.15;;;;;;;17.01;55.13;102040.00;6498821;23;20004;-85
2022/06/02 10:04:45;;;;;;;6.10;5.50;;;;;;;17.53;53.87;102047.75;6499477;23;20493;-84
2022/06/02 10:07:40;;;;;;;5.43;4.72;;;;;;;17.25;50.98;102049.19;6500861;23;20008;-83
2022/06/02 10:10:23;;;;;;;5.75;5.15;;;;;;;18.80;48.92;102046.44;6499904;23;20326;-84
2022/06/02 10:13:24;;;;;;;6.50;4.93;;;;;;;21.87;42.56;102038.06;6501151;23;20019;-84
2022/06/02 10:16:23;;;;;;;5.80;5.20;;;;;;;22.68;41.43;102047.09;6496048;23;20395;-84
2022/06/02 10:19:16;;;;;;;7.32;5.25;;;;;;;21.20;43.94;102042.38;6498890;23;20016;-81
2022/06/02 10:22:12;;;;;;;6.00;5.43;;;;;;;20.07;43.74;102043.63;6500200;23;20027;-84
2022/06/02 10:25:27;;;;;;;6.85;6.13;;;;;;;21.34;43.19;102034.75;6498761;23;20012;-86
2022/06/02 10:28:13;;;;;;;6.03;5.53;;;;;;;23.12;39.77;102030.97;6402746;23;20020;-80
2022/06/02 10:30:53;;;;;;;5.40;4.75;;;;;;;25.03;37.86;102032.16;6403398;23;20092;-85
2022/06/02 10:33:49;;;;;;;4.88;4.28;;;;;;;26.98;34.58;102035.19;6403695;23;20006;-86
2022/06/02 10:36:54;;;;;;;7.60;4.53;;;;;;;26.74;32.61;102033.09;6402683;23;20009;-85
2022/06/02 10:39:43;;;;;;;5.32;4.65;;;;;;;27.11;30.15;102037.94;6408632;23;20363;-86
2022/06/02 10:42:26;;;;;;;5.28;3.92;;;;;;;26.58;31.31;102026.91;6404729;23;20021;-86
2022/06/02 10:45:32;;;;;;;5.07;4.03;;;;;;;26.94;32.80;102025.66;6403795;23;20017;-86
2022/06/02 10:48:25;;;;;;;4.90;4.40;;;;;;;26.25;30.33;102024.50;6404421;23;20043;-87
2022/06/02 10:51:18;;;;;;;5.18;4.15;;;;;;;27.89;29.02;102024.03;6404221;23;20013;-88
2022/06/02 10:54:27;;;;;;;4.85;4.38;;;;;;;29.86;30.32;102017.38;6409323;23;20048;-79
2022/06/02 10:57:01;;;;;;;5.65;4.10;;;;;;;29.86;26.06;102016.53;6404252;23;20057;-85
2022/06/02 10:59:54;;;;;;;5.28;4.75;;;;;;;28.83;27.48;102006.03;6404584;23;20017;-86
2022/06/02 11:02:53;;;;;;;4.85;4.38;;;;;;;27.40;31.25;102012.06;6404428;23;20061;-85
2022/06/02 11:05:54;;;;;;;5.47;4.53;;;;;;;25.67;32.46;102008.19;6485372;23;20028;-86
2022/06/02 11:08:50;;;;;;;6.05;4.30;;;;;;;26.76;31.56;102014.28;6511654;23;20008;-84
2022/06/02 11:11:39;;;;;;;5.13;4.35;;;;;;;27.65;29.77;102008.59;6511473;23;20004;-86
2022/06/02 11:14:48;;;;;;;5.72;4.88;;;;;;;27.60;29.03;102010.72;6510042;23;20058;-86
2022/06/02 11:17:45;;;;;;;5.40;4.90;;;;;;;27.97;28.76;102002.97;6512407;23;20060;-84
2022/06/02 11:20:25;;;;;;;4.90;4.40;;;;;;;26.70;31.69;102001.28;6509869;23;20000;-85
2022/06/02 11:23:11;;;;;;;7.75;4.25;;;;;;;25.95;30.53;102001.25;6514983;23;20004;-86
2022/06/02 11:26:07;;;;;;;5.63;3.97;;;;;;;25.94;31.31;102002.22;6513488;23;20020;-85
2022/06/02 11:28:54;;;;;;;4.95;4.45;;;;;;;24.65;33.36;101999.53;6509621;23;20012;-86
2022/06/02 11:31:47;;;;;;;4.88;4.38;;;;;;;24.65;34.57;101991.53;6509402;23;20015;-84
2022/06/02 11:34:49;;;;;;;4.82;3.90;;;;;;;27.96;31.16;101995.88;6508019;23;20004;-80
2022/06/02 11:37:58;;;;;;;4.30;3.45;;;;;;;30.34;26.29;101998.44;6502225;23;20035;-86
2022/06/02 11:41:05;;;;;;;4.25;3.40;;;;;;;31.95;25.00;101994.47;6499887;23;20066;-86
2022/06/02 11:43:53;;;;;;;4.15;3.58;;;;;;;32.87;23.84;101987.50;6501573;23;20338;-87
2022/06/02 11:46:43;;;;;;;4.13;3.30;;;;;;;33.47;22.72;101983.94;6500318;23;20004;-85
2022/06/02 11:49:32;;;;;;;4.07;3.63;;;;;;;33.38;23.01;101975.69;6501139;23;20016;-86
2022/06/02 11:52:34;;;;;;;4.40;2.95;;;;;;;33.66;23.26;101975.84;6501490;23;20012;-86
2022/06/02 11:55:34;;;;;;;4.88;3.85;;;;;;;33.25;21.91;101967.00;6503501;23;20095;-86
2022/06/02 11:58:29;;;;;;;5.15;4.28;;;;;;;33.72;21.53;101966.34;6503656;23;20056;-84
2022/06/02 12:01:26;;;;;;;5.32;3.85;;;;;;;33.72;22.47;101955.53;6510808;23;20014;-84
2022/06/02 12:04:41;;;;;;;4.40;3.63;;;;;;;34.10;21.03;101965.44;6518629;23;20032;-84
2022/06/02 12:07:37;;;;;;;3.90;3.47;;;;;;;33.28;20.47;101950.53;6520310;23;20000;-85
2022/06/02 12:10:27;;;;;;;4.22;3.60;;;;;;;32.98;19.99;101952.28;6491322;23;20027;-85
2022/06/02 12:13:22;;;;;;;3.60;2.80;;;;;;;32.12;22.16;101949.03;6523429;23;20044;-87
2022/06/02 12:16:09;;;;;;;4.63;2.75;;;;;;;32.35;21.83;101953.28;6521259;23;20031;-86
2022/06/02 12:19:02;;;;;;;3.65;3.33;;;;;;;34.21;21.66;101955.44;6508000;23;20740;-87
2022/06/02 12:21:47;;;;;;;4.13;3.55;;;;;;;33.28;19.50;101937.00;6502484;23;20075;-82
2022/06/02 12:24:27;;;;;;;4.82;3.67;;;;;;;33.62;20.23;101934.72;6501241;23;20000;-85
2022/06/02 12:27:17;;;;;;;4.47;3.80;;;;;;;35.04;18.36;101937.41;6501660;23;20008;-82
2022/06/02 12:30:25;;;;;;;4.10;3.72;;;;;;;35.70;18.73;101931.78;6502048;23;20005;-85
2022/06/02 12:33:26;;;;;;;5.57;3.40;;;;;;;35.47;21.49;101931.41;6501223;23;20030;-85
2022/06/02 12:36:31;;;;;;;4.15;3.45;;;;;;;34.45;18.40;101928.72;6488425;23;20438;-82
2022/06/02 12:39:23;;;;;;;5.22;3.40;;;;;;;33.52;18.67;101927.59;6499273;23;20008;-84
2022/06/02 12:42:28;;;;;;;5.53;3.35;;;;;;;34.78;21.18;101918.34;6499610;23;20043;-86
2022/06/02 12:45:18;;;;;;;5.68;3.88;;;;;;;32.34;20.40;101919.19;6499837;23;20008;-87
2022/06/02 12:47:52;;;;;;;4.60;3.50;;;;;;;31.68;21.27;101914.09;6499402;23;20011;-85
2022/06/02 12:50:34;;;;;;;4.93;3.58;;;;;;;28.33;23.21;101901.34;6472211;23;20022;-82
2022/06/02 12:53:20;;;;;;;3.88;3.42;;;;;;;30.56;24.13;101899.94;6499683;23;20039;-86
2022/06/02 12:56:06;;;;;;;3.92;3.30;;;;;;;31.43;23.00;101896.44;6499891;23;20011;-84
2022/06/02 12:59:02;;;;;;;4.85;4.10;;;;;;;32.94;21.72;101896.81;6499780;23;20012;-86
2022/06/02 13:02:01;;;;;;;5.53;3.60;;;;;;;31.73;20.16;101889.44;6499862;23;20315;-86
2022/06/02 13:04:51;;;;;;;5.32;3.25;;;;;;;31.85;22.27;101893.78;6498619;23;20012;-82
2022/06/02 13:07:28;;;;;;;6.22;3.72;;;;;;;32.66;20.00;101885.81;6498251;23;20065;-81
2022/06/02 13:10:18;;;;;;;3.70;3.40;;;;;;;33.98;18.92;101896.25;6498989;23;20015;-82
2022/06/02 13:13:02;;;;;;;5.05;3.40;;;;;;;33.91;19.20;101900.56;6499216;23;20026;-81
2022/06/02 13:15:39;;;;;;;5.13;3.42;;;;;;;33.13;21.24;101890.59;6500555;23;20053;-82
2022/06/02 13:18:37;;;;;;;3.63;3.20;;;;;;;33.89;20.96;101895.31;6498674;23;20015;-81
2022/06/02 13:21:46;;;;;;;3.25;2.92;;;;;;;33.90;21.09;101899.69;6371669;23;20513;-82